Pompeii, Michigan
Current Conditions -  °F | °C
As of 5:31 AM on Monday 20 Oct 2014 (Local Time) from KAMN Reporting Station
Broken Clouds Broken Clouds  
Wind Chill: 45°   Ceiling: 7000
Heat Index: 48°   Visibility: 10mi
Dew Point: 44°   Wind: 7mph
Humidity: 86%   Direction: 190°S
Pressure: 29.81"   Gusts: NA
Location:  43.18°N, 84.6°W
Report Text: KAMN 200931Z AUTO 19006KT 10SM BKN070 09/07 A2981 RMK AO2 T00900067
Loading
Personal Weather Stations






























Interactive Weather Map
Tropical Storm Tracking
New forecast layout! Learn more

10-Day Weather Forecast

Advertisements
Track Severe Weather on mobile